sensor_id;sensor_type;location;lat;lon;timestamp;temperature;humidity
9006;DHT22;62284;50.702;7.140;2022-10-29T00:02:14;16.50;99.90
9006;DHT22;62284;50.702;7.140;2022-10-29T00:04:42;16.60;99.90
9006;DHT22;62284;50.702;7.140;2022-10-29T00:07:09;16.60;99.90
9006;DHT22;62284;50.702;7.140;2022-10-29T00:09:36;16.60;99.90
9006;DHT22;62284;50.702;7.140;2022-10-29T00:12:03;16.50;99.90
9006;DHT22;62284;50.702;7.140;2022-10-29T00:14:30;16.60;99.90
9006;DHT22;62284;50.702;7.140;2022-10-29T00:17:00;16.70;99.90
9006;DHT22;62284;50.702;7.140;2022-10-29T00:19:27;16.70;99.90
9006;DHT22;62284;50.702;7.140;2022-10-29T00:21:55;16.60;99.90
9006;DHT22;62284;50.702;7.140;2022-10-29T00:24:22;16.60;99.90
9006;DHT22;62284;50.702;7.140;2022-10-29T00:26:49;16.50;99.90
9006;DHT22;62284;50.702;7.140;2022-10-29T00:29:15;16.50;99.90
9006;DHT22;62284;50.702;7.140;2022-10-29T00:31:42;16.50;99.90
9006;DHT22;62284;50.702;7.140;2022-10-29T00:34:09;16.50;99.90
9006;DHT22;62284;50.702;7.140;2022-10-29T00:36:36;16.50;99.90
9006;DHT22;62284;50.702;7.140;2022-10-29T00:39:04;16.60;99.90
9006;DHT22;62284;50.702;7.140;2022-10-29T00:41:31;16.50;99.90
9006;DHT22;62284;50.702;7.140;2022-10-29T00:44:28;16.60;99.90
9006;DHT22;62284;50.702;7.140;2022-10-29T00:46:59;16.70;99.90
9006;DHT22;62284;50.702;7.140;2022-10-29T00:49:29;16.70;99.90
9006;DHT22;62284;50.702;7.140;2022-10-29T00:51:57;16.80;99.90
9006;DHT22;62284;50.702;7.140;2022-10-29T00:54:27;16.80;99.90
9006;DHT22;62284;50.702;7.140;2022-10-29T00:56:59;16.80;99.90
9006;DHT22;62284;50.702;7.140;2022-10-29T00:59:26;16.80;99.90
9006;DHT22;62284;50.702;7.140;2022-10-29T01:01:53;16.80;99.90
9006;DHT22;62284;50.702;7.140;2022-10-29T01:04:21;16.80;99.90
9006;DHT22;62284;50.702;7.140;2022-10-29T01:06:49;16.80;99.90
9006;DHT22;62284;50.702;7.140;2022-10-29T01:09:16;16.80;99.90
9006;DHT22;62284;50.702;7.140;2022-10-29T01:11:50;16.90;99.90
9006;DHT22;62284;50.702;7.140;2022-10-29T01:14:27;16.90;99.90
9006;DHT22;62284;50.702;7.140;2022-10-29T01:17:02;17.00;99.90
9006;DHT22;62284;50.702;7.140;2022-10-29T01:19:51;17.00;99.90
9006;DHT22;62284;50.702;7.140;2022-10-29T01:22:25;17.10;99.90
9006;DHT22;62284;50.702;7.140;2022-10-29T01:25:23;17.00;99.90
9006;DHT22;62284;50.702;7.140;2022-10-29T01:28:05;17.00;99.90
9006;DHT22;62284;50.702;7.140;2022-10-29T01:30:49;16.80;99.90
9006;DHT22;62284;50.702;7.140;2022-10-29T01:33:21;16.80;99.90
9006;DHT22;62284;50.702;7.140;2022-10-29T01:35:53;16.70;99.90
9006;DHT22;62284;50.702;7.140;2022-10-29T01:38:31;16.70;99.90
9006;DHT22;62284;50.702;7.140;2022-10-29T01:41:06;16.70;99.90
9006;DHT22;62284;50.702;7.140;2022-10-29T01:43:38;16.60;99.90
9006;DHT22;62284;50.702;7.140;2022-10-29T01:46:11;16.60;99.90
9006;DHT22;62284;50.702;7.140;2022-10-29T01:48:42;16.60;99.90
9006;DHT22;62284;50.702;7.140;2022-10-29T01:51:15;16.50;99.90
9006;DHT22;62284;50.702;7.140;2022-10-29T01:53:45;16.50;99.90
9006;DHT22;62284;50.702;7.140;2022-10-29T01:56:12;16.50;99.90
9006;DHT22;62284;50.702;7.140;2022-10-29T01:58:39;16.50;99.90
9006;DHT22;62284;50.702;7.140;2022-10-29T02:01:22;16.40;99.90
9006;DHT22;62284;50.702;7.140;2022-10-29T02:03:56;16.40;99.90
9006;DHT22;62284;50.702;7.140;2022-10-29T02:06:34;16.40;99.90
9006;DHT22;62284;50.702;7.140;2022-10-29T02:09:07;16.40;99.90
9006;DHT22;62284;50.702;7.140;2022-10-29T02:11:42;16.30;99.90
9006;DHT22;62284;50.702;7.140;2022-10-29T02:14:15;16.40;99.90
9006;DHT22;62284;50.702;7.140;2022-10-29T02:16:46;16.40;99.90
9006;DHT22;62284;50.702;7.140;2022-10-29T02:19:14;16.30;99.90
9006;DHT22;62284;50.702;7.140;2022-10-29T02:21:41;16.40;99.90
9006;DHT22;62284;50.702;7.140;2022-10-29T02:24:09;16.40;99.90
9006;DHT22;62284;50.702;7.140;2022-10-29T02:26:36;16.40;99.90
9006;DHT22;62284;50.702;7.140;2022-10-29T02:29:03;16.40;99.90
9006;DHT22;62284;50.702;7.140;2022-10-29T02:31:30;16.30;99.90
9006;DHT22;62284;50.702;7.140;2022-10-29T02:33:58;16.30;99.90
9006;DHT22;62284;50.702;7.140;2022-10-29T02:36:25;16.20;99.90
9006;DHT22;62284;50.702;7.140;2022-10-29T02:38:52;16.20;99.90
9006;DHT22;62284;50.702;7.140;2022-10-29T02:41:19;16.10;99.90
9006;DHT22;62284;50.702;7.140;2022-10-29T02:43:45;16.00;99.90
9006;DHT22;62284;50.702;7.140;2022-10-29T02:46:14;16.00;99.90
9006;DHT22;62284;50.702;7.140;2022-10-29T02:48:41;16.00;99.90
9006;DHT22;62284;50.702;7.140;2022-10-29T02:51:10;15.90;99.90
9006;DHT22;62284;50.702;7.140;2022-10-29T02:53:37;15.90;99.90
9006;DHT22;62284;50.702;7.140;2022-10-29T02:56:04;15.90;99.90
9006;DHT22;62284;50.702;7.140;2022-10-29T02:58:32;15.80;99.90
9006;DHT22;62284;50.702;7.140;2022-10-29T03:00:59;15.70;99.90
9006;DHT22;62284;50.702;7.140;2022-10-29T03:03:26;15.70;99.90
9006;DHT22;62284;50.702;7.140;2022-10-29T03:05:53;15.80;99.90
9006;DHT22;62284;50.702;7.140;2022-10-29T03:08:21;15.90;99.90
9006;DHT22;62284;50.702;7.140;2022-10-29T03:10:48;16.00;99.90
9006;DHT22;62284;50.702;7.140;2022-10-29T03:13:15;15.90;99.90
9006;DHT22;62284;50.702;7.140;2022-10-29T03:15:42;15.90;99.90
9006;DHT22;62284;50.702;7.140;2022-10-29T03:18:10;15.90;99.90
9006;DHT22;62284;50.702;7.140;2022-10-29T03:20:37;16.00;99.90
9006;DHT22;62284;50.702;7.140;2022-10-29T03:23:04;15.90;99.90
9006;DHT22;62284;50.702;7.140;2022-10-29T03:25:32;15.90;99.90
9006;DHT22;62284;50.702;7.140;2022-10-29T03:27:59;15.90;99.90
9006;DHT22;62284;50.702;7.140;2022-10-29T03:30:26;15.90;99.90
9006;DHT22;62284;50.702;7.140;2022-10-29T03:32:53;15.80;99.90
9006;DHT22;62284;50.702;7.140;2022-10-29T03:35:19;15.80;99.90
9006;DHT22;62284;50.702;7.140;2022-10-29T03:37:48;15.70;99.90
9006;DHT22;62284;50.702;7.140;2022-10-29T03:40:16;15.70;99.90
9006;DHT22;62284;50.702;7.140;2022-10-29T03:42:44;15.70;99.90
9006;DHT22;62284;50.702;7.140;2022-10-29T03:45:11;15.80;99.90
9006;DHT22;62284;50.702;7.140;2022-10-29T03:47:38;15.80;99.90
9006;DHT22;62284;50.702;7.140;2022-10-29T03:50:05;15.80;99.90
9006;DHT22;62284;50.702;7.140;2022-10-29T03:52:32;15.80;99.90
9006;DHT22;62284;50.702;7.140;2022-10-29T03:54:59;15.80;99.90
9006;DHT22;62284;50.702;7.140;2022-10-29T03:57:26;15.90;99.90
9006;DHT22;62284;50.702;7.140;2022-10-29T03:59:55;15.80;99.90
9006;DHT22;62284;50.702;7.140;2022-10-29T04:02:22;15.90;99.90
9006;DHT22;62284;50.702;7.140;2022-10-29T04:04:49;15.90;99.90
9006;DHT22;62284;50.702;7.140;2022-10-29T04:07:16;15.90;99.90
9006;DHT22;62284;50.702;7.140;2022-10-29T04:09:42;15.90;99.90
9006;DHT22;62284;50.702;7.140;2022-10-29T04:12:09;15.90;99.90
9006;DHT22;62284;50.702;7.140;2022-10-29T04:14:36;16.00;99.90
9006;DHT22;62284;50.702;7.140;2022-10-29T04:17:04;15.90;99.90
9006;DHT22;62284;50.702;7.140;2022-10-29T04:19:31;16.00;99.90
9006;DHT22;62284;50.702;7.140;2022-10-29T04:21:58;15.90;99.90
9006;DHT22;62284;50.702;7.140;2022-10-29T04:24:25;15.90;99.90
9006;DHT22;62284;50.702;7.140;2022-10-29T04:26:52;16.00;99.90
9006;DHT22;62284;50.702;7.140;2022-10-29T04:29:19;16.00;99.90
9006;DHT22;62284;50.702;7.140;2022-10-29T04:31:46;16.00;99.90
9006;DHT22;62284;50.702;7.140;2022-10-29T04:34:14;16.00;99.90
9006;DHT22;62284;50.702;7.140;2022-10-29T04:36:41;16.00;99.90
9006;DHT22;62284;50.702;7.140;2022-10-29T04:39:07;16.00;99.90
9006;DHT22;62284;50.702;7.140;2022-10-29T04:41:34;16.10;99.90
9006;DHT22;62284;50.702;7.140;2022-10-29T04:44:01;16.10;99.90
9006;DHT22;62284;50.702;7.140;2022-10-29T04:46:28;16.00;99.90
9006;DHT22;62284;50.702;7.140;2022-10-29T04:48:55;16.00;99.90
9006;DHT22;62284;50.702;7.140;2022-10-29T04:51:24;16.00;99.90
9006;DHT22;62284;50.702;7.140;2022-10-29T04:53:52;16.00;99.90
9006;DHT22;62284;50.702;7.140;2022-10-29T04:56:19;15.90;99.90
9006;DHT22;62284;50.702;7.140;2022-10-29T04:58:49;15.80;99.90
9006;DHT22;62284;50.702;7.140;2022-10-29T05:01:15;15.80;99.90
9006;DHT22;62284;50.702;7.140;2022-10-29T05:03:42;15.80;99.90
9006;DHT22;62284;50.702;7.140;2022-10-29T05:06:09;15.70;99.90
9006;DHT22;62284;50.702;7.140;2022-10-29T05:08:37;15.70;99.90
9006;DHT22;62284;50.702;7.140;2022-10-29T05:11:05;15.70;99.90
9006;DHT22;62284;50.702;7.140;2022-10-29T05:13:32;15.70;99.90
9006;DHT22;62284;50.702;7.140;2022-10-29T05:15:59;15.80;99.90
9006;DHT22;62284;50.702;7.140;2022-10-29T05:18:26;15.80;99.90
9006;DHT22;62284;50.702;7.140;2022-10-29T05:20:53;15.90;99.90
9006;DHT22;62284;50.702;7.140;2022-10-29T05:23:20;15.90;99.90
9006;DHT22;62284;50.702;7.140;2022-10-29T05:25:49;15.90;99.90
9006;DHT22;62284;50.702;7.140;2022-10-29T05:28:18;15.90;99.90
9006;DHT22;62284;50.702;7.140;2022-10-29T05:30:45;15.90;99.90
9006;DHT22;62284;50.702;7.140;2022-10-29T05:33:14;15.90;99.90
9006;DHT22;62284;50.702;7.140;2022-10-29T05:35:42;15.90;99.90
9006;DHT22;62284;50.702;7.140;2022-10-29T05:38:09;15.90;99.90
9006;DHT22;62284;50.702;7.140;2022-10-29T05:40:36;15.90;99.90
9006;DHT22;62284;50.702;7.140;2022-10-29T05:43:05;15.80;99.90
9006;DHT22;62284;50.702;7.140;2022-10-29T05:45:32;15.90;99.90
9006;DHT22;62284;50.702;7.140;2022-10-29T05:48:00;15.90;99.90
9006;DHT22;62284;50.702;7.140;2022-10-29T05:50:28;15.90;99.90
9006;DHT22;62284;50.702;7.140;2022-10-29T05:52:55;15.90;99.90
9006;DHT22;62284;50.702;7.140;2022-10-29T05:55:22;15.80;99.90
9006;DHT22;62284;50.702;7.140;2022-10-29T05:57:53;15.80;99.90
9006;DHT22;62284;50.702;7.140;2022-10-29T06:00:21;15.80;99.90
9006;DHT22;62284;50.702;7.140;2022-10-29T06:02:48;15.90;99.90
9006;DHT22;62284;50.702;7.140;2022-10-29T06:05:15;16.00;99.90
9006;DHT22;62284;50.702;7.140;2022-10-29T06:07:42;16.10;99.90
9006;DHT22;62284;50.702;7.140;2022-10-29T06:10:09;16.20;99.90
9006;DHT22;62284;50.702;7.140;2022-10-29T06:12:36;16.20;99.90
9006;DHT22;62284;50.702;7.140;2022-10-29T06:15:03;16.20;99.90
9006;DHT22;62284;50.702;7.140;2022-10-29T06:17:31;16.20;99.90
9006;DHT22;62284;50.702;7.140;2022-10-29T06:19:58;16.30;99.90
9006;DHT22;62284;50.702;7.140;2022-10-29T06:22:25;16.20;99.90
9006;DHT22;62284;50.702;7.140;2022-10-29T06:24:52;16.10;99.90
9006;DHT22;62284;50.702;7.140;2022-10-29T06:27:19;16.10;99.90
9006;DHT22;62284;50.702;7.140;2022-10-29T06:29:46;16.00;99.90
9006;DHT22;62284;50.702;7.140;2022-10-29T06:32:13;16.00;99.90
9006;DHT22;62284;50.702;7.140;2022-10-29T06:34:41;16.00;99.90
9006;DHT22;62284;50.702;7.140;2022-10-29T06:37:08;16.00;99.90
9006;DHT22;62284;50.702;7.140;2022-10-29T06:39:35;16.00;99.90
9006;DHT22;62284;50.702;7.140;2022-10-29T06:42:02;16.10;99.90
9006;DHT22;62284;50.702;7.140;2022-10-29T06:44:29;16.10;99.90
9006;DHT22;62284;50.702;7.140;2022-10-29T06:46:56;16.20;99.90
9006;DHT22;62284;50.702;7.140;2022-10-29T06:49:23;16.30;99.90
9006;DHT22;62284;50.702;7.140;2022-10-29T06:51:51;16.30;99.90
9006;DHT22;62284;50.702;7.140;2022-10-29T06:54:18;16.40;99.90
9006;DHT22;62284;50.702;7.140;2022-10-29T06:56:45;16.40;99.90
9006;DHT22;62284;50.702;7.140;2022-10-29T06:59:11;16.50;99.90
9006;DHT22;62284;50.702;7.140;2022-10-29T07:01:38;16.50;99.90
9006;DHT22;62284;50.702;7.140;2022-10-29T07:04:05;16.60;99.90
9006;DHT22;62284;50.702;7.140;2022-10-29T07:06:32;16.60;99.90
9006;DHT22;62284;50.702;7.140;2022-10-29T07:09:01;16.70;99.90
9006;DHT22;62284;50.702;7.140;2022-10-29T07:11:28;16.70;99.90
9006;DHT22;62284;50.702;7.140;2022-10-29T07:13:55;16.80;99.90
9006;DHT22;62284;50.702;7.140;2022-10-29T07:16:22;16.80;99.90
9006;DHT22;62284;50.702;7.140;2022-10-29T07:18:48;16.80;99.90
9006;DHT22;62284;50.702;7.140;2022-10-29T07:21:15;16.90;99.90
9006;DHT22;62284;50.702;7.140;2022-10-29T07:23:42;16.90;99.90
9006;DHT22;62284;50.702;7.140;2022-10-29T07:26:10;16.90;99.90
9006;DHT22;62284;50.702;7.140;2022-10-29T07:28:37;17.10;99.90
9006;DHT22;62284;50.702;7.140;2022-10-29T07:31:04;17.10;99.90
9006;DHT22;62284;50.702;7.140;2022-10-29T07:33:32;17.10;99.90
9006;DHT22;62284;50.702;7.140;2022-10-29T07:35:59;17.10;99.90
9006;DHT22;62284;50.702;7.140;2022-10-29T07:38:26;17.20;99.90
9006;DHT22;62284;50.702;7.140;2022-10-29T07:40:53;17.40;99.90
9006;DHT22;62284;50.702;7.140;2022-10-29T07:43:21;17.40;99.90
9006;DHT22;62284;50.702;7.140;2022-10-29T07:45:49;17.50;99.90
9006;DHT22;62284;50.702;7.140;2022-10-29T07:48:17;17.60;99.90
9006;DHT22;62284;50.702;7.140;2022-10-29T07:50:44;17.60;99.90
9006;DHT22;62284;50.702;7.140;2022-10-29T07:53:11;17.70;99.90
9006;DHT22;62284;50.702;7.140;2022-10-29T07:55:38;17.80;99.90
9006;DHT22;62284;50.702;7.140;2022-10-29T07:58:06;17.80;99.90
9006;DHT22;62284;50.702;7.140;2022-10-29T08:00:36;17.90;99.90
9006;DHT22;62284;50.702;7.140;2022-10-29T08:03:03;17.90;99.90
9006;DHT22;62284;50.702;7.140;2022-10-29T08:05:31;17.90;99.90
9006;DHT22;62284;50.702;7.140;2022-10-29T08:07:58;17.90;99.90
9006;DHT22;62284;50.702;7.140;2022-10-29T08:10:26;17.90;99.90
9006;DHT22;62284;50.702;7.140;2022-10-29T08:12:54;18.00;99.90
9006;DHT22;62284;50.702;7.140;2022-10-29T08:15:22;18.00;99.90
9006;DHT22;62284;50.702;7.140;2022-10-29T08:17:51;18.00;99.90
9006;DHT22;62284;50.702;7.140;2022-10-29T08:20:18;18.00;99.90
9006;DHT22;62284;50.702;7.140;2022-10-29T08:22:46;18.00;99.90
9006;DHT22;62284;50.702;7.140;2022-10-29T08:25:14;18.10;99.90
9006;DHT22;62284;50.702;7.140;2022-10-29T08:27:41;18.20;99.90
9006;DHT22;62284;50.702;7.140;2022-10-29T08:30:10;18.30;99.90
9006;DHT22;62284;50.702;7.140;2022-10-29T08:32:44;18.30;99.90
9006;DHT22;62284;50.702;7.140;2022-10-29T08:35:13;18.40;99.90
9006;DHT22;62284;50.702;7.140;2022-10-29T08:37:41;18.50;99.90
9006;DHT22;62284;50.702;7.140;2022-10-29T08:40:13;18.60;99.90
9006;DHT22;62284;50.702;7.140;2022-10-29T08:42:49;18.70;99.90
9006;DHT22;62284;50.702;7.140;2022-10-29T08:45:23;18.70;99.90
9006;DHT22;62284;50.702;7.140;2022-10-29T08:48:14;18.70;99.90
9006;DHT22;62284;50.702;7.140;2022-10-29T08:50:50;18.90;99.90
9006;DHT22;62284;50.702;7.140;2022-10-29T08:53:20;19.10;99.90
9006;DHT22;62284;50.702;7.140;2022-10-29T08:55:47;19.20;99.90
9006;DHT22;62284;50.702;7.140;2022-10-29T08:58:21;19.30;99.90
9006;DHT22;62284;50.702;7.140;2022-10-29T09:00:53;19.40;99.90
9006;DHT22;62284;50.702;7.140;2022-10-29T09:03:21;19.40;99.90
9006;DHT22;62284;50.702;7.140;2022-10-29T09:05:59;19.40;99.90
9006;DHT22;62284;50.702;7.140;2022-10-29T09:08:36;19.50;99.90
9006;DHT22;62284;50.702;7.140;2022-10-29T09:11:14;19.60;99.90
9006;DHT22;62284;50.702;7.140;2022-10-29T09:13:49;19.60;99.90
9006;DHT22;62284;50.702;7.140;2022-10-29T09:16:24;19.70;99.90
9006;DHT22;62284;50.702;7.140;2022-10-29T09:19:05;19.70;99.90
9006;DHT22;62284;50.702;7.140;2022-10-29T09:21:41;19.80;99.90
9006;DHT22;62284;50.702;7.140;2022-10-29T09:24:13;19.80;99.90
9006;DHT22;62284;50.702;7.140;2022-10-29T09:26:49;19.90;99.90
9006;DHT22;62284;50.702;7.140;2022-10-29T09:29:33;20.10;99.80
9006;DHT22;62284;50.702;7.140;2022-10-29T09:32:04;20.30;99.50
9006;DHT22;62284;50.702;7.140;2022-10-29T09:34:39;20.40;99.90
9006;DHT22;62284;50.702;7.140;2022-10-29T09:37:14;20.30;99.40
9006;DHT22;62284;50.702;7.140;2022-10-29T09:39:43;20.40;99.70
9006;DHT22;62284;50.702;7.140;2022-10-29T09:42:15;20.30;99.70
9006;DHT22;62284;50.702;7.140;2022-10-29T09:44:49;20.30;99.50
9006;DHT22;62284;50.702;7.140;2022-10-29T09:47:28;20.10;99.80
9006;DHT22;62284;50.702;7.140;2022-10-29T09:50:05;20.10;99.90
9006;DHT22;62284;50.702;7.140;2022-10-29T09:52:39;20.00;99.90
9006;DHT22;62284;50.702;7.140;2022-10-29T09:55:14;20.00;99.90
9006;DHT22;62284;50.702;7.140;2022-10-29T09:57:42;20.10;99.90
9006;DHT22;62284;50.702;7.140;2022-10-29T10:00:16;20.20;99.90
9006;DHT22;62284;50.702;7.140;2022-10-29T10:02:46;20.40;99.90
9006;DHT22;62284;50.702;7.140;2022-10-29T10:05:17;20.50;99.60
9006;DHT22;62284;50.702;7.140;2022-10-29T10:08:04;20.60;99.00
9006;DHT22;62284;50.702;7.140;2022-10-29T10:10:32;20.70;98.80
9006;DHT22;62284;50.702;7.140;2022-10-29T10:13:02;20.80;99.10
9006;DHT22;62284;50.702;7.140;2022-10-29T10:15:32;20.80;98.80
9006;DHT22;62284;50.702;7.140;2022-10-29T10:18:00;20.70;98.30
9006;DHT22;62284;50.702;7.140;2022-10-29T10:20:36;20.90;98.40
9006;DHT22;62284;50.702;7.140;2022-10-29T10:23:20;21.20;97.90
9006;DHT22;62284;50.702;7.140;2022-10-29T10:25:48;22.10;96.40
9006;DHT22;62284;50.702;7.140;2022-10-29T10:28:21;23.00;95.90
9006;DHT22;62284;50.702;7.140;2022-10-29T10:31:10;23.30;93.40
9006;DHT22;62284;50.702;7.140;2022-10-29T10:33:47;22.90;93.60
9006;DHT22;62284;50.702;7.140;2022-10-29T10:36:15;22.20;94.60
9006;DHT22;62284;50.702;7.140;2022-10-29T10:38:46;21.90;95.60
9006;DHT22;62284;50.702;7.140;2022-10-29T10:41:15;21.70;95.60
9006;DHT22;62284;50.702;7.140;2022-10-29T10:43:44;21.60;96.00
9006;DHT22;62284;50.702;7.140;2022-10-29T10:46:15;21.50;96.80
9006;DHT22;62284;50.702;7.140;2022-10-29T10:48:58;21.60;96.80
9006;DHT22;62284;50.702;7.140;2022-10-29T10:51:28;21.60;96.20
9006;DHT22;62284;50.702;7.140;2022-10-29T10:53:58;21.40;96.90
9006;DHT22;62284;50.702;7.140;2022-10-29T10:56:25;21.40;97.40
9006;DHT22;62284;50.702;7.140;2022-10-29T10:58:58;21.20;97.10
9006;DHT22;62284;50.702;7.140;2022-10-29T11:01:31;21.20;96.60
9006;DHT22;62284;50.702;7.140;2022-10-29T11:04:09;21.10;97.10
9006;DHT22;62284;50.702;7.140;2022-10-29T11:06:40;20.90;96.80
9006;DHT22;62284;50.702;7.140;2022-10-29T11:09:17;21.00;97.20
9006;DHT22;62284;50.702;7.140;2022-10-29T11:11:49;21.10;96.90
9006;DHT22;62284;50.702;7.140;2022-10-29T11:14:23;21.10;97.20
9006;DHT22;62284;50.702;7.140;2022-10-29T11:16:53;21.10;96.80
9006;DHT22;62284;50.702;7.140;2022-10-29T11:19:25;21.10;97.30
9006;DHT22;62284;50.702;7.140;2022-10-29T11:22:00;21.20;97.30
9006;DHT22;62284;50.702;7.140;2022-10-29T11:24:40;21.30;96.70
9006;DHT22;62284;50.702;7.140;2022-10-29T11:27:19;21.40;96.40
9006;DHT22;62284;50.702;7.140;2022-10-29T11:29:56;21.50;96.50
9006;DHT22;62284;50.702;7.140;2022-10-29T11:32:32;21.80;96.00
9006;DHT22;62284;50.702;7.140;2022-10-29T11:35:03;21.90;95.90
9006;DHT22;62284;50.702;7.140;2022-10-29T11:37:35;21.90;96.10
9006;DHT22;62284;50.702;7.140;2022-10-29T11:40:12;22.00;95.20
9006;DHT22;62284;50.702;7.140;2022-10-29T11:42:39;22.40;94.60
9006;DHT22;62284;50.702;7.140;2022-10-29T11:45:10;22.50;94.40
9006;DHT22;62284;50.702;7.140;2022-10-29T11:47:52;22.80;93.90
9006;DHT22;62284;50.702;7.140;2022-10-29T11:50:27;22.90;94.10
9006;DHT22;62284;50.702;7.140;2022-10-29T11:53:06;23.00;94.00
9006;DHT22;62284;50.702;7.140;2022-10-29T11:55:44;23.70;93.00
9006;DHT22;62284;50.702;7.140;2022-10-29T11:58:17;24.30;90.80
9006;DHT22;62284;50.702;7.140;2022-10-29T12:00:55;24.30;91.10
9006;DHT22;62284;50.702;7.140;2022-10-29T12:03:38;24.00;90.40
9006;DHT22;62284;50.702;7.140;2022-10-29T12:06:13;23.90;90.20
9006;DHT22;62284;50.702;7.140;2022-10-29T12:08:53;23.90;90.60
9006;DHT22;62284;50.702;7.140;2022-10-29T12:11:26;23.90;90.10
9006;DHT22;62284;50.702;7.140;2022-10-29T12:14:01;23.90;90.20
9006;DHT22;62284;50.702;7.140;2022-10-29T12:16:37;24.40;89.60
9006;DHT22;62284;50.702;7.140;2022-10-29T12:19:15;24.60;87.50
9006;DHT22;62284;50.702;7.140;2022-10-29T12:21:51;25.20;86.20
9006;DHT22;62284;50.702;7.140;2022-10-29T12:24:37;25.50;83.30
9006;DHT22;62284;50.702;7.140;2022-10-29T12:27:17;25.70;80.40
9006;DHT22;62284;50.702;7.140;2022-10-29T12:29:50;25.40;84.00
9006;DHT22;62284;50.702;7.140;2022-10-29T12:32:21;25.20;82.80
9006;DHT22;62284;50.702;7.140;2022-10-29T12:34:54;25.00;83.80
9006;DHT22;62284;50.702;7.140;2022-10-29T12:37:34;24.50;84.40
9006;DHT22;62284;50.702;7.140;2022-10-29T12:40:12;24.20;85.60
9006;DHT22;62284;50.702;7.140;2022-10-29T12:42:42;23.90;86.70
9006;DHT22;62284;50.702;7.140;2022-10-29T12:45:29;23.80;90.10
9006;DHT22;62284;50.702;7.140;2022-10-29T12:48:04;23.70;89.90
9006;DHT22;62284;50.702;7.140;2022-10-29T12:50:42;23.50;90.40
9006;DHT22;62284;50.702;7.140;2022-10-29T12:53:18;23.50;90.20
9006;DHT22;62284;50.702;7.140;2022-10-29T12:55:48;23.60;89.20
9006;DHT22;62284;50.702;7.140;2022-10-29T12:58:45;23.60;90.30
9006;DHT22;62284;50.702;7.140;2022-10-29T13:01:47;23.90;88.20
9006;DHT22;62284;50.702;7.140;2022-10-29T13:04:25;24.20;87.20
9006;DHT22;62284;50.702;7.140;2022-10-29T13:06:58;24.30;87.30
9006;DHT22;62284;50.702;7.140;2022-10-29T13:09:27;24.50;85.60
9006;DHT22;62284;50.702;7.140;2022-10-29T13:11:56;24.60;84.90
9006;DHT22;62284;50.702;7.140;2022-10-29T13:14:32;24.80;85.20
9006;DHT22;62284;50.702;7.140;2022-10-29T13:17:03;24.90;84.80
9006;DHT22;62284;50.702;7.140;2022-10-29T13:19:46;25.10;83.70
9006;DHT22;62284;50.702;7.140;2022-10-29T13:22:52;25.20;84.10
9006;DHT22;62284;50.702;7.140;2022-10-29T13:25:45;24.90;82.00
9006;DHT22;62284;50.702;7.140;2022-10-29T13:28:49;24.70;83.70
9006;DHT22;62284;50.702;7.140;2022-10-29T13:31:43;24.50;85.90
9006;DHT22;62284;50.702;7.140;2022-10-29T13:41:06;24.10;88.00
9006;DHT22;62284;50.702;7.140;2022-10-29T13:43:33;24.10;86.10
9006;DHT22;62284;50.702;7.140;2022-10-29T13:46:31;24.20;87.90
9006;DHT22;62284;50.702;7.140;2022-10-29T13:49:04;24.50;87.80
9006;DHT22;62284;50.702;7.140;2022-10-29T13:51:40;24.50;88.60
9006;DHT22;62284;50.702;7.140;2022-10-29T13:54:22;24.60;89.40
9006;DHT22;62284;50.702;7.140;2022-10-29T13:56:52;24.50;87.80
9006;DHT22;62284;50.702;7.140;2022-10-29T13:59:27;24.50;87.50
9006;DHT22;62284;50.702;7.140;2022-10-29T14:02:02;24.70;86.20
9006;DHT22;62284;50.702;7.140;2022-10-29T14:04:35;24.50;85.30
9006;DHT22;62284;50.702;7.140;2022-10-29T14:07:10;24.50;85.20
9006;DHT22;62284;50.702;7.140;2022-10-29T14:09:43;24.60;82.90
9006;DHT22;62284;50.702;7.140;2022-10-29T14:12:16;24.40;82.20
9006;DHT22;62284;50.702;7.140;2022-10-29T14:14:49;24.40;82.40
9006;DHT22;62284;50.702;7.140;2022-10-29T14:17:18;24.40;81.90
9006;DHT22;62284;50.702;7.140;2022-10-29T14:19:48;24.40;82.70
9006;DHT22;62284;50.702;7.140;2022-10-29T14:22:35;24.20;83.00
9006;DHT22;62284;50.702;7.140;2022-10-29T14:25:24;24.30;81.50
9006;DHT22;62284;50.702;7.140;2022-10-29T14:28:07;24.20;82.10
9006;DHT22;62284;50.702;7.140;2022-10-29T14:30:34;24.00;84.90
9006;DHT22;62284;50.702;7.140;2022-10-29T14:33:01;23.90;83.60
9006;DHT22;62284;50.702;7.140;2022-10-29T14:35:43;23.80;82.70
9006;DHT22;62284;50.702;7.140;2022-10-29T14:38:11;23.50;83.50
9006;DHT22;62284;50.702;7.140;2022-10-29T14:40:39;23.30;83.70
9006;DHT22;62284;50.702;7.140;2022-10-29T14:43:18;23.10;84.70
9006;DHT22;62284;50.702;7.140;2022-10-29T14:45:47;23.00;87.00
9006;DHT22;62284;50.702;7.140;2022-10-29T14:48:15;22.80;86.60
9006;DHT22;62284;50.702;7.140;2022-10-29T14:50:47;22.60;87.70
9006;DHT22;62284;50.702;7.140;2022-10-29T14:53:25;22.50;87.80
9006;DHT22;62284;50.702;7.140;2022-10-29T14:55:53;22.40;88.10
9006;DHT22;62284;50.702;7.140;2022-10-29T14:58:22;22.40;89.70
9006;DHT22;62284;50.702;7.140;2022-10-29T15:00:54;22.30;89.30
9006;DHT22;62284;50.702;7.140;2022-10-29T15:03:24;22.30;90.00
9006;DHT22;62284;50.702;7.140;2022-10-29T15:06:12;22.30;90.10
9006;DHT22;62284;50.702;7.140;2022-10-29T15:08:41;22.20;90.70
9006;DHT22;62284;50.702;7.140;2022-10-29T15:14:24;22.10;90.60
9006;DHT22;62284;50.702;7.140;2022-10-29T15:16:52;22.10;91.00
9006;DHT22;62284;50.702;7.140;2022-10-29T15:19:19;22.10;91.30
9006;DHT22;62284;50.702;7.140;2022-10-29T15:21:49;21.90;91.60
9006;DHT22;62284;50.702;7.140;2022-10-29T15:24:19;21.90;91.90
9006;DHT22;62284;50.702;7.140;2022-10-29T15:26:49;21.90;91.90
9006;DHT22;62284;50.702;7.140;2022-10-29T15:29:21;21.80;92.30
9006;DHT22;62284;50.702;7.140;2022-10-29T15:31:49;21.70;92.80
9006;DHT22;62284;50.702;7.140;2022-10-29T15:34:26;21.70;93.00
9006;DHT22;62284;50.702;7.140;2022-10-29T15:36:55;21.60;93.30
9006;DHT22;62284;50.702;7.140;2022-10-29T15:39:26;21.50;93.30
9006;DHT22;62284;50.702;7.140;2022-10-29T15:41:55;21.40;94.10
9006;DHT22;62284;50.702;7.140;2022-10-29T15:44:40;21.30;93.80
9006;DHT22;62284;50.702;7.140;2022-10-29T15:47:19;21.30;94.50
9006;DHT22;62284;50.702;7.140;2022-10-29T15:49:46;21.30;95.30
9006;DHT22;62284;50.702;7.140;2022-10-29T15:52:16;21.20;95.50
9006;DHT22;62284;50.702;7.140;2022-10-29T15:54:44;20.90;96.30
9006;DHT22;62284;50.702;7.140;2022-10-29T15:57:12;20.80;97.00
9006;DHT22;62284;50.702;7.140;2022-10-29T15:59:40;20.70;97.00
9006;DHT22;62284;50.702;7.140;2022-10-29T16:02:11;20.60;97.50
9006;DHT22;62284;50.702;7.140;2022-10-29T16:04:38;20.50;97.70
9006;DHT22;62284;50.702;7.140;2022-10-29T16:07:07;20.40;97.80
9006;DHT22;62284;50.702;7.140;2022-10-29T16:09:36;20.50;97.50
9006;DHT22;62284;50.702;7.140;2022-10-29T16:12:03;20.40;98.10
9006;DHT22;62284;50.702;7.140;2022-10-29T16:14:30;20.30;98.00
9006;DHT22;62284;50.702;7.140;2022-10-29T16:16:57;20.20;98.50
9006;DHT22;62284;50.702;7.140;2022-10-29T16:19:24;20.10;98.70
9006;DHT22;62284;50.702;7.140;2022-10-29T16:21:51;20.00;99.20